Time;durP1;ratioP1;P1;durP2;ratioP2;P2;SDS_P1;SDS_P2;PMS_P1;PMS_P2;Temp;Humidity;BMP_temperature;BMP_pressure;BME280_temperature;BME280_humidity;BME280_pressure;Samples;Min_cycle;Max_cycle;Signal;HPM_P1;HPM_P2
2023/06/09 00:02:22;;;;;;;0.17;0.17;;;22.40;99.90;;;;;;5054746;28;20033;-82
2023/06/09 00:04:48;;;;;;;0.00;0.00;;;22.30;99.90;;;;;;5054218;28;20052;-83
2023/06/09 00:07:16;;;;;;;0.47;0.28;;;22.30;99.90;;;;;;5053626;28;20500;-82
2023/06/09 00:09:45;;;;;;;0.30;0.30;;;22.20;99.90;;;;;;5054609;28;20035;-82
2023/06/09 00:12:12;;;;;;;0.13;0.13;;;22.30;99.90;;;;;;5053827;28;20512;-82
2023/06/09 00:14:38;;;;;;;0.00;0.00;;;22.20;99.90;;;;;;5054043;28;20028;-83
2023/06/09 00:17:07;;;;;;;0.00;0.00;;;22.30;99.90;;;;;;5054495;28;20057;-83
2023/06/09 00:19:36;;;;;;;0.00;0.00;;;22.30;99.90;;;;;;5053876;28;20086;-82
2023/06/09 00:22:02;;;;;;;0.10;0.10;;;22.40;99.90;;;;;;5053988;28;20033;-82
2023/06/09 00:24:28;;;;;;;0.38;0.20;;;22.30;99.90;;;;;;5054906;28;20017;-83
2023/06/09 00:26:54;;;;;;;1.80;0.45;;;22.20;99.90;;;;;;5053146;28;20135;-83
2023/06/09 00:29:24;;;;;;;0.10;0.10;;;22.20;99.90;;;;;;5053745;28;20116;-83
2023/06/09 00:31:49;;;;;;;3.92;0.30;;;22.20;99.90;;;;;;5054874;28;20428;-82
2023/06/09 00:34:15;;;;;;;0.20;0.20;;;22.20;99.90;;;;;;5053871;28;20017;-83
2023/06/09 00:36:41;;;;;;;0.17;0.17;;;22.10;99.90;;;;;;5053603;28;20388;-82
2023/06/09 00:39:07;;;;;;;0.10;0.10;;;22.00;99.90;;;;;;5053543;28;20025;-82
2023/06/09 00:41:37;;;;;;;0.00;0.00;;;22.10;99.90;;;;;;5052992;28;20553;-82
2023/06/09 00:44:03;;;;;;;0.10;0.10;;;22.10;99.90;;;;;;5053844;28;20039;-83
2023/06/09 00:46:29;;;;;;;0.10;0.10;;;22.10;99.90;;;;;;5053405;28;20087;-83
2023/06/09 00:48:55;;;;;;;0.85;0.30;;;22.30;99.90;;;;;;5053302;28;20029;-83
2023/06/09 00:51:21;;;;;;;0.25;0.25;;;22.00;99.90;;;;;;5033467;28;20029;-82
2023/06/09 00:53:47;;;;;;;0.20;0.20;;;22.10;99.90;;;;;;5053280;28;20083;-82
2023/06/09 00:56:13;;;;;;;0.63;0.35;;;22.00;99.90;;;;;;5052875;28;20028;-83
2023/06/09 00:58:38;;;;;;;0.20;0.20;;;22.00;99.90;;;;;;5053246;28;20079;-83
2023/06/09 01:01:04;;;;;;;0.10;0.10;;;21.90;99.90;;;;;;5053162;28;20511;-82
2023/06/09 01:03:32;;;;;;;0.40;0.40;;;21.80;99.90;;;;;;5053117;28;20350;-82
2023/06/09 01:06:16;;;;;;;1.10;0.47;;;21.80;99.90;;;;;;5052953;28;20118;-82
2023/06/09 01:08:56;;;;;;;0.13;0.13;;;21.80;99.90;;;;;;5035000;28;20397;-82
2023/06/09 01:11:22;;;;;;;0.20;0.20;;;21.70;99.90;;;;;;5053321;28;20025;-82
2023/06/09 01:14:13;;;;;;;0.20;0.13;;;21.70;99.90;;;;;;5052970;28;20032;-82
2023/06/09 01:16:52;;;;;;;0.35;0.35;;;21.60;99.90;;;;;;5052786;28;20025;-82
2023/06/09 01:19:41;;;;;;;0.10;0.10;;;21.70;99.90;;;;;;5052713;28;20029;-82
2023/06/09 01:22:44;;;;;;;0.80;0.47;;;21.60;99.90;;;;;;5053049;28;20025;-82
2023/06/09 01:25:46;;;;;;;0.65;0.40;;;21.60;99.90;;;;;;5052878;28;20120;-82
2023/06/09 01:28:17;;;;;;;0.10;0.10;;;21.50;99.90;;;;;;4952505;29;20039;-82
2023/06/09 01:30:46;;;;;;;0.43;0.43;;;21.50;99.90;;;;;;4952677;29;20424;-82
2023/06/09 01:33:17;;;;;;;0.00;0.00;;;21.50;99.90;;;;;;4952557;29;20050;-82
2023/06/09 01:35:43;;;;;;;0.45;0.45;;;21.50;99.90;;;;;;4953106;29;20511;-83
2023/06/09 01:38:10;;;;;;;0.20;0.20;;;21.50;99.90;;;;;;4952099;29;20035;-83
2023/06/09 01:40:36;;;;;;;0.08;0.08;;;21.50;99.90;;;;;;4952171;29;20138;-83
2023/06/09 01:43:04;;;;;;;0.10;0.10;;;21.40;99.90;;;;;;4952307;28;20110;-83
2023/06/09 01:45:30;;;;;;;0.00;0.00;;;21.50;99.90;;;;;;4952262;29;20062;-83
2023/06/09 01:47:55;;;;;;;0.10;0.10;;;21.40;99.90;;;;;;4952369;29;20182;-83
2023/06/09 01:50:31;;;;;;;0.13;0.13;;;21.50;99.90;;;;;;4952262;29;20042;-82
2023/06/09 01:53:12;;;;;;;0.17;0.17;;;21.40;99.90;;;;;;4951904;29;20069;-83
2023/06/09 01:55:44;;;;;;;0.10;0.10;;;21.30;99.90;;;;;;4952175;29;20163;-82
2023/06/09 01:58:22;;;;;;;0.15;0.15;;;21.40;99.90;;;;;;4952252;29;20551;-82
2023/06/09 02:00:49;;;;;;;0.25;0.25;;;21.50;99.90;;;;;;4935984;29;20122;-83
2023/06/09 02:03:20;;;;;;;0.10;0.10;;;21.40;99.90;;;;;;5045366;28;20037;-83
2023/06/09 02:05:46;;;;;;;0.25;0.20;;;21.40;99.90;;;;;;5052033;28;20025;-82
2023/06/09 02:08:13;;;;;;;0.03;0.03;;;21.40;99.90;;;;;;5051748;28;20150;-83
2023/06/09 02:10:40;;;;;;;0.10;0.10;;;21.30;99.90;;;;;;5052293;28;20026;-82
2023/06/09 02:13:16;;;;;;;0.75;0.43;;;21.30;99.90;;;;;;5051300;28;20033;-82
2023/06/09 02:15:43;;;;;;;0.00;0.00;;;21.30;99.90;;;;;;5052521;28;20028;-83
2023/06/09 02:18:11;;;;;;;0.08;0.08;;;21.30;99.90;;;;;;5052010;28;20025;-82
2023/06/09 02:20:39;;;;;;;0.00;0.00;;;21.20;99.90;;;;;;5051866;28;20040;-82
2023/06/09 02:23:05;;;;;;;0.20;0.20;;;21.20;99.90;;;;;;5051445;28;20116;-82
2023/06/09 02:25:32;;;;;;;0.00;0.00;;;21.30;99.90;;;;;;5052771;28;20099;-82
2023/06/09 02:28:02;;;;;;;0.10;0.10;;;21.20;99.90;;;;;;5051865;28;20472;-82
2023/06/09 02:30:27;;;;;;;0.20;0.20;;;21.10;99.90;;;;;;5051724;28;20033;-82
2023/06/09 02:32:55;;;;;;;0.52;0.25;;;21.00;99.90;;;;;;5051817;28;20039;-82
2023/06/09 02:35:20;;;;;;;0.20;0.20;;;21.10;99.90;;;;;;5051987;28;20024;-82
2023/06/09 02:37:46;;;;;;;0.10;0.10;;;21.10;99.90;;;;;;5051247;28;20017;-83
2023/06/09 02:40:12;;;;;;;0.00;0.00;;;21.10;99.90;;;;;;5051651;28;20106;-82
2023/06/09 02:42:38;;;;;;;0.50;0.20;;;21.20;99.90;;;;;;5034454;28;20465;-83
2023/06/09 02:45:06;;;;;;;0.03;0.03;;;21.30;99.90;;;;;;5051865;28;20029;-83
2023/06/09 02:47:32;;;;;;;0.10;0.10;;;21.10;99.90;;;;;;5052153;28;20025;-83
2023/06/09 02:49:57;;;;;;;0.20;0.20;;;21.10;99.90;;;;;;5051582;28;20025;-82
2023/06/09 02:52:23;;;;;;;0.43;0.20;;;21.10;99.90;;;;;;5051314;28;20029;-83
2023/06/09 02:54:48;;;;;;;0.10;0.10;;;21.00;99.90;;;;;;5051645;28;20112;-82
2023/06/09 02:57:14;;;;;;;0.10;0.10;;;21.00;99.90;;;;;;5051620;28;20108;-82
2023/06/09 02:59:40;;;;;;;0.00;0.00;;;20.90;99.90;;;;;;5052086;28;20025;-82
2023/06/09 03:02:06;;;;;;;0.00;0.00;;;20.80;99.90;;;;;;5051860;28;20025;-83
2023/06/09 03:04:34;;;;;;;0.00;0.00;;;20.70;99.90;;;;;;5051435;28;20115;-83
2023/06/09 03:07:00;;;;;;;0.00;0.00;;;20.80;99.90;;;;;;5051631;28;20036;-82
2023/06/09 03:09:26;;;;;;;0.10;0.10;;;20.80;99.90;;;;;;5051431;28;20029;-82
2023/06/09 03:11:51;;;;;;;0.00;0.00;;;20.90;99.90;;;;;;5052216;28;20083;-83
2023/06/09 03:14:17;;;;;;;0.10;0.10;;;20.90;99.90;;;;;;5051641;28;20029;-83
2023/06/09 03:16:42;;;;;;;0.65;0.55;;;21.00;99.90;;;;;;5051556;28;20031;-82
2023/06/09 03:19:08;;;;;;;0.10;0.10;;;20.90;99.90;;;;;;5051351;28;20028;-82
2023/06/09 03:21:35;;;;;;;0.00;0.00;;;21.00;99.90;;;;;;5050987;28;20036;-83
2023/06/09 03:24:06;;;;;;;0.20;0.13;;;20.80;99.90;;;;;;5052862;28;20017;-83
2023/06/09 03:26:32;;;;;;;0.65;0.10;;;20.90;99.90;;;;;;5055081;28;20045;-83
2023/06/09 03:28:57;;;;;;;0.38;0.35;;;20.80;99.90;;;;;;5055165;28;20469;-83
2023/06/09 03:31:23;;;;;;;0.28;0.22;;;20.80;99.90;;;;;;5054726;28;20048;-83
2023/06/09 03:33:48;;;;;;;0.00;0.00;;;20.80;99.90;;;;;;5054484;28;20025;-82
2023/06/09 03:36:14;;;;;;;0.00;0.00;;;20.90;99.90;;;;;;5055106;28;20051;-83
2023/06/09 03:38:40;;;;;;;0.00;0.00;;;20.90;99.90;;;;;;5054732;28;20520;-83
2023/06/09 03:41:05;;;;;;;0.00;0.00;;;20.90;99.90;;;;;;5054640;28;20128;-82
2023/06/09 03:43:31;;;;;;;0.00;0.00;;;21.00;99.90;;;;;;5054964;28;20082;-82
2023/06/09 03:45:56;;;;;;;0.08;0.08;;;21.00;99.90;;;;;;5054516;28;20032;-82
2023/06/09 03:48:22;;;;;;;0.30;0.20;;;20.90;99.90;;;;;;5054240;28;20024;-82
2023/06/09 03:50:48;;;;;;;0.20;0.20;;;21.10;99.90;;;;;;5054919;28;20032;-82
2023/06/09 03:53:13;;;;;;;0.10;0.10;;;21.10;99.90;;;;;;5054476;28;20393;-83
2023/06/09 03:55:39;;;;;;;0.00;0.00;;;21.00;99.90;;;;;;5054520;28;20033;-83
2023/06/09 03:58:06;;;;;;;0.10;0.10;;;21.00;99.90;;;;;;5054368;28;20021;-82
2023/06/09 04:00:32;;;;;;;0.10;0.10;;;21.00;99.90;;;;;;5054754;28;20495;-82
2023/06/09 04:02:57;;;;;;;0.10;0.10;;;21.00;99.90;;;;;;5053954;28;20024;-82
2023/06/09 04:05:24;;;;;;;0.10;0.10;;;20.90;99.90;;;;;;5054992;28;20082;-82
2023/06/09 04:07:52;;;;;;;0.10;0.10;;;20.90;99.90;;;;;;5054246;28;20025;-82
2023/06/09 04:10:17;;;;;;;0.10;0.10;;;20.90;99.90;;;;;;5054063;28;20480;-82
2023/06/09 04:12:43;;;;;;;0.10;0.10;;;21.00;99.90;;;;;;5054449;28;20120;-82
2023/06/09 04:15:09;;;;;;;0.00;0.00;;;21.00;99.90;;;;;;5054214;28;20025;-83
2023/06/09 04:17:36;;;;;;;0.05;0.05;;;20.90;99.90;;;;;;5054353;28;20033;-83
2023/06/09 04:20:04;;;;;;;0.00;0.00;;;20.90;99.90;;;;;;5053893;28;20591;-83
2023/06/09 04:22:30;;;;;;;0.00;0.00;;;20.90;99.90;;;;;;5054288;28;20115;-83
2023/06/09 04:24:56;;;;;;;0.00;0.00;;;21.00;99.90;;;;;;5053936;28;20472;-82
2023/06/09 04:27:23;;;;;;;0.00;0.00;;;20.90;99.90;;;;;;5053866;28;20033;-83
2023/06/09 04:29:50;;;;;;;0.00;0.00;;;20.90;99.90;;;;;;5053967;28;20438;-83
2023/06/09 04:32:16;;;;;;;0.00;0.00;;;21.00;99.90;;;;;;5035609;28;20189;-83
2023/06/09 04:34:45;;;;;;;0.13;0.13;;;21.00;99.90;;;;;;5053723;28;20370;-82
2023/06/09 04:37:12;;;;;;;0.00;0.00;;;20.90;99.90;;;;;;5053051;28;20478;-82
2023/06/09 04:39:41;;;;;;;0.03;0.03;;;21.00;99.90;;;;;;5053917;28;20528;-82
2023/06/09 04:42:07;;;;;;;0.10;0.10;;;21.00;99.90;;;;;;5053390;28;20108;-82
2023/06/09 04:44:33;;;;;;;0.00;0.00;;;20.90;99.90;;;;;;5053468;28;20082;-83
2023/06/09 04:47:02;;;;;;;0.13;0.13;;;20.90;99.90;;;;;;5053130;28;20033;-82
2023/06/09 04:49:30;;;;;;;0.00;0.00;;;21.00;99.90;;;;;;5053300;28;20108;-82
2023/06/09 04:51:57;;;;;;;0.00;0.00;;;21.00;99.90;;;;;;5053572;28;20108;-83
2023/06/09 04:54:28;;;;;;;1.02;0.35;;;21.00;99.90;;;;;;5053576;28;20025;-82
2023/06/09 04:56:57;;;;;;;0.20;0.20;;;21.10;99.90;;;;;;5053612;28;20496;-82
2023/06/09 04:59:29;;;;;;;0.00;0.00;;;21.20;99.90;;;;;;5052697;28;20052;-83
2023/06/09 05:01:55;;;;;;;0.00;0.00;;;21.20;99.90;;;;;;5053186;28;20025;-82
2023/06/09 05:04:21;;;;;;;0.08;0.08;;;21.30;99.90;;;;;;5053261;28;20354;-82
2023/06/09 05:06:46;;;;;;;0.15;0.15;;;21.20;99.90;;;;;;5053448;28;20119;-82
2023/06/09 05:09:12;;;;;;;0.10;0.10;;;21.40;99.90;;;;;;5053019;28;20025;-82
2023/06/09 05:11:38;;;;;;;1.65;0.40;;;21.40;99.90;;;;;;5052931;28;20485;-83
2023/06/09 05:14:07;;;;;;;0.32;0.32;;;21.40;99.90;;;;;;5053058;28;20100;-83
2023/06/09 05:16:34;;;;;;;0.35;0.35;;;21.40;99.90;;;;;;5052537;28;20049;-82
2023/06/09 05:19:00;;;;;;;0.22;0.22;;;21.30;99.90;;;;;;5053926;28;20017;-82
2023/06/09 05:21:26;;;;;;;0.60;0.40;;;21.40;99.90;;;;;;5052572;28;20484;-82
2023/06/09 05:23:53;;;;;;;0.25;0.25;;;21.40;99.90;;;;;;5052884;28;20032;-82
2023/06/09 05:26:19;;;;;;;0.10;0.10;;;21.50;99.90;;;;;;5052910;28;20033;-83
2023/06/09 05:28:45;;;;;;;2.83;0.20;;;21.50;99.90;;;;;;5052761;28;20143;-83
2023/06/09 05:31:14;;;;;;;0.30;0.30;;;21.50;99.90;;;;;;5052090;28;20043;-83
2023/06/09 05:33:42;;;;;;;0.28;0.28;;;21.60;99.90;;;;;;5052672;28;20104;-82
2023/06/09 05:36:08;;;;;;;0.08;0.08;;;21.60;99.90;;;;;;5052447;28;20484;-83
2023/06/09 05:38:34;;;;;;;0.13;0.13;;;21.60;99.90;;;;;;5052854;28;20497;-82
2023/06/09 05:40:59;;;;;;;0.65;0.40;;;21.70;99.90;;;;;;5052334;28;20128;-83
2023/06/09 05:43:26;;;;;;;0.20;0.20;;;21.80;99.90;;;;;;5052362;28;20535;-83
2023/06/09 05:45:52;;;;;;;0.13;0.13;;;21.90;99.90;;;;;;5052226;28;20037;-82
2023/06/09 05:48:18;;;;;;;0.25;0.25;;;21.90;99.90;;;;;;5052384;28;20025;-83
2023/06/09 05:50:45;;;;;;;0.57;0.57;;;21.90;99.90;;;;;;5052317;28;20508;-82
2023/06/09 05:53:11;;;;;;;0.40;0.40;;;22.10;99.90;;;;;;5052278;28;20021;-83
2023/06/09 05:55:36;;;;;;;0.80;0.60;;;22.20;99.90;;;;;;5052268;28;20029;-82
2023/06/09 05:58:03;;;;;;;0.60;0.30;;;22.30;99.90;;;;;;5052313;28;20017;-83
2023/06/09 06:00:30;;;;;;;0.28;0.28;;;22.10;99.90;;;;;;5051707;28;20045;-83
2023/06/09 06:03:00;;;;;;;0.30;0.30;;;22.10;99.90;;;;;;5052706;28;20028;-82
2023/06/09 06:05:26;;;;;;;0.17;0.17;;;22.20;99.90;;;;;;5052216;28;20112;-82
2023/06/09 06:07:52;;;;;;;0.47;0.20;;;22.30;99.90;;;;;;5052006;28;20065;-82
2023/06/09 06:10:17;;;;;;;0.10;0.10;;;22.50;99.90;;;;;;5052547;28;20060;-82
2023/06/09 06:12:43;;;;;;;0.30;0.30;;;22.30;99.90;;;;;;5052370;28;20039;-81
2023/06/09 06:15:09;;;;;;;2.60;0.85;;;22.20;99.90;;;;;;5052712;28;20044;-83
2023/06/09 06:17:35;;;;;;;0.30;0.20;;;22.20;99.90;;;;;;5052174;28;20021;-83
2023/06/09 06:20:00;;;;;;;0.30;0.30;;;22.20;99.90;;;;;;5051952;28;20397;-82
2023/06/09 06:22:26;;;;;;;0.50;0.50;;;22.40;99.90;;;;;;5052229;28;20028;-83
2023/06/09 06:24:51;;;;;;;0.20;0.20;;;22.40;99.90;;;;;;5051888;28;20037;-82
2023/06/09 06:27:17;;;;;;;1.08;0.50;;;22.40;99.90;;;;;;5052199;28;20393;-83
2023/06/09 06:29:43;;;;;;;0.20;0.20;;;22.30;99.90;;;;;;5051540;28;20074;-82
2023/06/09 06:32:08;;;;;;;0.20;0.20;;;22.50;99.90;;;;;;5051987;28;20493;-83
2023/06/09 06:34:34;;;;;;;0.30;0.30;;;22.70;99.90;;;;;;5051715;28;20032;-82
2023/06/09 06:37:00;;;;;;;0.30;0.30;;;22.60;99.90;;;;;;5052434;28;20025;-82
2023/06/09 06:39:25;;;;;;;1.08;0.68;;;22.60;99.90;;;;;;5051812;28;20394;-82
2023/06/09 06:41:51;;;;;;;0.45;0.45;;;22.60;99.90;;;;;;5051597;28;20025;-83
2023/06/09 06:44:17;;;;;;;3.75;0.73;;;22.70;99.90;;;;;;5052953;28;20033;-86
2023/06/09 06:46:43;;;;;;;0.20;0.20;;;22.80;99.90;;;;;;5035491;28;20408;-82
2023/06/09 06:49:08;;;;;;;0.20;0.20;;;23.00;99.90;;;;;;5052076;28;20025;-83
2023/06/09 06:51:34;;;;;;;0.30;0.30;;;22.80;99.90;;;;;;5051678;28;20117;-83
2023/06/09 06:54:00;;;;;;;1.08;0.35;;;22.80;99.90;;;;;;5051684;28;20053;-82
2023/06/09 06:56:26;;;;;;;0.30;0.30;;;22.80;99.90;;;;;;5051615;28;20104;-83
2023/06/09 06:58:52;;;;;;;0.28;0.28;;;23.00;99.90;;;;;;5052708;28;20468;-83
2023/06/09 07:01:21;;;;;;;0.10;0.10;;;23.10;99.90;;;;;;5055491;28;20053;-83
2023/06/09 07:03:50;;;;;;;0.30;0.30;;;23.00;99.90;;;;;;5055497;28;20381;-82
2023/06/09 07:06:17;;;;;;;0.20;0.20;;;22.80;99.90;;;;;;5055414;28;20086;-83
2023/06/09 07:08:43;;;;;;;0.43;0.43;;;22.70;99.90;;;;;;5055454;28;20366;-82
2023/06/09 07:11:09;;;;;;;0.17;0.17;;;23.00;99.90;;;;;;5055008;28;20029;-83
2023/06/09 07:13:34;;;;;;;0.80;0.30;;;23.20;99.90;;;;;;5055242;28;20485;-83
2023/06/09 07:16:01;;;;;;;1.75;1.20;;;23.10;99.90;;;;;;5055382;28;20028;-82
2023/06/09 07:18:27;;;;;;;0.22;0.22;;;23.10;99.90;;;;;;5055292;28;20025;-82
2023/06/09 07:20:53;;;;;;;0.47;0.32;;;23.20;99.90;;;;;;5055112;28;20563;-82
2023/06/09 07:23:19;;;;;;;0.55;0.55;;;23.30;99.90;;;;;;5055411;28;20029;-83
2023/06/09 07:25:45;;;;;;;1.10;0.40;;;23.20;99.90;;;;;;5054520;28;20075;-83
2023/06/09 07:28:10;;;;;;;0.30;0.30;;;23.30;99.90;;;;;;5054929;28;20033;-82
2023/06/09 07:30:40;;;;;;;0.77;0.50;;;23.20;99.90;;;;;;5055450;28;20396;-83
2023/06/09 07:33:06;;;;;;;0.50;0.50;;;23.20;99.90;;;;;;5055715;28;20071;-82
2023/06/09 07:35:32;;;;;;;1.17;1.08;;;23.20;99.90;;;;;;5054819;28;20025;-83
2023/06/09 07:37:58;;;;;;;0.30;0.30;;;23.20;99.90;;;;;;5054975;28;20107;-82
2023/06/09 07:40:23;;;;;;;0.30;0.30;;;23.30;99.90;;;;;;5054219;28;20132;-82
2023/06/09 07:42:49;;;;;;;0.10;0.10;;;23.50;99.90;;;;;;5054529;28;20037;-83
2023/06/09 07:45:15;;;;;;;0.52;0.52;;;23.60;99.90;;;;;;5054519;28;20459;-82
2023/06/09 07:47:40;;;;;;;0.25;0.25;;;23.50;99.90;;;;;;5054992;28;20119;-83
2023/06/09 07:50:06;;;;;;;0.52;0.28;;;23.50;99.90;;;;;;5054551;28;20063;-82
2023/06/09 07:52:32;;;;;;;0.70;0.70;;;23.20;99.90;;;;;;5054516;28;20481;-83
2023/06/09 07:54:58;;;;;;;1.40;0.57;;;23.20;99.90;;;;;;5053990;28;20021;-83
2023/06/09 07:57:24;;;;;;;1.27;0.95;;;23.10;99.90;;;;;;5054515;28;20037;-83
2023/06/09 07:59:50;;;;;;;0.45;0.43;;;23.30;99.90;;;;;;5054151;28;20381;-83
2023/06/09 08:02:16;;;;;;;0.40;0.40;;;23.40;99.90;;;;;;5054400;28;20029;-83
2023/06/09 08:04:42;;;;;;;0.13;0.13;;;23.30;99.90;;;;;;5054288;28;20021;-82
2023/06/09 08:07:08;;;;;;;0.20;0.20;;;23.20;99.90;;;;;;5054448;28;20033;-82
2023/06/09 08:09:34;;;;;;;0.65;0.40;;;23.00;99.90;;;;;;5053518;28;20087;-83
2023/06/09 08:11:59;;;;;;;0.63;0.43;;;23.00;99.90;;;;;;5053281;28;20464;-82
2023/06/09 08:14:25;;;;;;;0.35;0.28;;;23.00;99.90;;;;;;5054577;28;20537;-83
2023/06/09 08:16:52;;;;;;;1.02;0.65;;;23.00;99.90;;;;;;5053908;28;20096;-82
2023/06/09 08:19:17;;;;;;;0.85;0.85;;;23.10;99.90;;;;;;5053910;28;20029;-82
2023/06/09 08:21:43;;;;;;;0.03;0.03;;;23.10;99.90;;;;;;5054799;28;20054;-82
2023/06/09 08:24:12;;;;;;;0.22;0.22;;;23.30;99.90;;;;;;5053595;28;20025;-82
2023/06/09 08:26:40;;;;;;;0.30;0.30;;;23.40;99.90;;;;;;5054186;28;20095;-82
2023/06/09 08:29:06;;;;;;;0.75;0.75;;;23.60;99.90;;;;;;5054031;28;20032;-82
2023/06/09 08:31:32;;;;;;;0.47;0.47;;;23.60;99.90;;;;;;5053649;28;20116;-82
2023/06/09 08:33:58;;;;;;;0.20;0.20;;;23.70;99.90;;;;;;5053799;28;20021;-82
2023/06/09 08:36:24;;;;;;;0.43;0.43;;;23.60;99.90;;;;;;5054204;28;20029;-83
2023/06/09 08:38:50;;;;;;;0.25;0.25;;;23.60;99.90;;;;;;5053205;28;20049;-82
2023/06/09 08:41:16;;;;;;;0.52;0.50;;;23.70;99.90;;;;;;5053255;28;20057;-83
2023/06/09 08:43:42;;;;;;;0.28;0.25;;;23.80;99.90;;;;;;5054254;28;20041;-82
2023/06/09 08:46:10;;;;;;;0.20;0.20;;;23.80;99.90;;;;;;5053340;28;20068;-83
2023/06/09 08:48:43;;;;;;;0.40;0.20;;;23.80;99.90;;;;;;5053395;28;20028;-83
2023/06/09 08:51:09;;;;;;;0.52;0.30;;;23.70;99.90;;;;;;5036087;28;20033;-83
2023/06/09 08:53:35;;;;;;;0.45;0.30;;;23.70;99.90;;;;;;5053013;28;20102;-82
2023/06/09 08:56:01;;;;;;;0.57;0.57;;;23.60;99.90;;;;;;5035530;28;20060;-82
2023/06/09 08:58:28;;;;;;;0.63;0.50;;;23.50;99.90;;;;;;5053274;28;20106;-82
2023/06/09 09:00:54;;;;;;;0.40;0.40;;;23.50;99.90;;;;;;5053613;28;20024;-83
2023/06/09 09:03:20;;;;;;;0.45;0.38;;;23.40;99.90;;;;;;5053327;28;20029;-82
2023/06/09 09:05:47;;;;;;;1.13;0.73;;;23.30;99.90;;;;;;5053523;28;20033;-82
2023/06/09 09:08:14;;;;;;;0.52;0.52;;;23.40;99.90;;;;;;5052918;28;20071;-82
2023/06/09 09:10:45;;;;;;;0.75;0.60;;;23.40;99.90;;;;;;5053043;28;20021;-82
2023/06/09 09:13:11;;;;;;;0.55;0.45;;;23.40;99.90;;;;;;5053077;28;20023;-82
2023/06/09 09:15:40;;;;;;;0.65;0.65;;;23.30;99.90;;;;;;5053248;28;20100;-83
2023/06/09 09:18:09;;;;;;;0.50;0.20;;;23.00;99.90;;;;;;5052908;28;20036;-83
2023/06/09 09:20:35;;;;;;;4.20;1.20;;;23.10;99.90;;;;;;5052812;28;20032;-82
2023/06/09 09:23:03;;;;;;;0.52;0.10;;;23.30;99.90;;;;;;5052288;28;20095;-82
2023/06/09 09:25:30;;;;;;;0.45;0.45;;;23.30;99.90;;;;;;5052747;28;20108;-82
2023/06/09 09:28:04;;;;;;;0.50;0.50;;;23.40;99.90;;;;;;5034874;28;20033;-82
2023/06/09 09:30:44;;;;;;;1.65;0.57;;;23.40;99.90;;;;;;5053762;28;20028;-82
2023/06/09 09:33:12;;;;;;;1.33;0.98;;;23.50;99.90;;;;;;5052865;28;20480;-83
2023/06/09 09:35:39;;;;;;;3.50;1.17;;;23.60;99.90;;;;;;5052649;28;20499;-83
2023/06/09 09:38:11;;;;;;;0.75;0.75;;;23.70;99.90;;;;;;5052605;28;20058;-82
2023/06/09 09:40:42;;;;;;;0.65;0.65;;;23.60;99.90;;;;;;5052398;28;20095;-82
2023/06/09 09:43:10;;;;;;;0.63;0.60;;;23.70;99.90;;;;;;5050306;28;20031;-88
2023/06/09 09:45:38;;;;;;;0.35;0.35;;;23.80;99.90;;;;;;5043498;28;20061;-89
2023/06/09 09:48:11;;;;;;;0.73;0.60;;;23.60;99.90;;;;;;5040390;28;20037;-86
2023/06/09 09:50:38;;;;;;;0.55;0.55;;;23.50;99.90;;;;;;5043609;28;20104;-85
2023/06/09 09:53:05;;;;;;;0.35;0.35;;;23.40;99.90;;;;;;5037720;28;20475;-87
2023/06/09 09:55:36;;;;;;;2.28;0.82;;;23.20;99.90;;;;;;5052958;28;20041;-88
2023/06/09 09:58:06;;;;;;;0.25;0.25;;;23.20;99.90;;;;;;5027681;28;20437;-88
2023/06/09 10:00:35;;;;;;;1.13;0.60;;;23.20;99.90;;;;;;5015296;28;20544;-87
2023/06/09 10:03:09;;;;;;;0.57;0.57;;;23.40;99.90;;;;;;5033924;28;20040;-86
2023/06/09 10:05:41;;;;;;;0.50;0.50;;;22.80;99.90;;;;;;5043450;28;20033;-89
2023/06/09 10:08:10;;;;;;;1.40;0.82;;;23.40;99.90;;;;;;5032684;28;20033;-89
2023/06/09 10:10:36;;;;;;;0.70;0.68;;;23.20;99.90;;;;;;5036974;28;20097;-86
2023/06/09 10:13:03;;;;;;;0.40;0.40;;;23.20;99.90;;;;;;5015057;28;20037;-88
2023/06/09 10:15:31;;;;;;;0.93;0.85;;;23.40;99.90;;;;;;5040121;28;20032;-87
2023/06/09 10:17:58;;;;;;;1.63;0.70;;;23.10;99.90;;;;;;5043078;28;20493;-86
2023/06/09 10:20:24;;;;;;;0.70;0.70;;;23.20;99.90;;;;;;5042300;28;20033;-86
2023/06/09 10:22:52;;;;;;;0.30;0.30;;;23.50;99.90;;;;;;5038181;28;20100;-87
2023/06/09 10:25:17;;;;;;;1.05;0.40;;;23.60;99.90;;;;;;5032855;28;20103;-87
2023/06/09 10:27:44;;;;;;;0.60;0.60;;;23.60;99.90;;;;;;5037639;28;20256;-87
2023/06/09 10:30:12;;;;;;;2.10;1.00;;;23.60;99.90;;;;;;5029650;28;20501;-86
2023/06/09 10:32:46;;;;;;;0.55;0.55;;;23.50;99.90;;;;;;5040224;28;20033;-87
2023/06/09 10:35:15;;;;;;;0.82;0.82;;;23.50;99.90;;;;;;5045097;28;20013;-87
2023/06/09 10:37:42;;;;;;;1.08;0.70;;;23.70;99.90;;;;;;5045749;28;20079;-87
2023/06/09 10:40:16;;;;;;;0.93;0.82;;;23.60;99.90;;;;;;5041308;28;20044;-85
2023/06/09 10:43:02;;;;;;;0.82;0.82;;;23.60;99.90;;;;;;5044295;28;20029;-85
2023/06/09 10:45:56;;;;;;;0.55;0.55;;;23.50;99.90;;;;;;5045145;28;20470;-84
2023/06/09 10:48:46;;;;;;;0.60;0.60;;;23.50;99.90;;;;;;5043052;28;20057;-83
2023/06/09 10:51:26;;;;;;;1.38;1.27;;;23.30;99.90;;;;;;5027862;28;20040;-82
2023/06/09 10:54:10;;;;;;;0.32;0.32;;;23.60;99.90;;;;;;5049344;28;20188;-86
2023/06/09 10:56:41;;;;;;;0.30;0.30;;;23.60;99.90;;;;;;5038459;28;20026;-85
2023/06/09 10:59:25;;;;;;;0.28;0.28;;;23.60;99.90;;;;;;5026577;28;20033;-83
2023/06/09 11:02:02;;;;;;;0.85;0.60;;;23.60;99.90;;;;;;5035921;28;20385;-84
2023/06/09 11:04:48;;;;;;;0.50;0.50;;;23.60;99.90;;;;;;5042278;28;20033;-84
2023/06/09 11:07:22;;;;;;;0.50;0.50;;;23.70;99.90;;;;;;5042900;28;20514;-84
2023/06/09 11:09:51;;;;;;;0.47;0.47;;;23.40;99.90;;;;;;5034157;28;20108;-82
2023/06/09 11:12:29;;;;;;;1.88;0.80;;;23.50;99.90;;;;;;5042242;28;20025;-82
2023/06/09 11:14:57;;;;;;;0.98;0.60;;;23.50;99.90;;;;;;5043124;28;20061;-84
2023/06/09 11:17:33;;;;;;;0.40;0.40;;;23.40;99.90;;;;;;5042762;28;20041;-85
2023/06/09 11:20:20;;;;;;;0.55;0.55;;;23.30;99.90;;;;;;5043531;28;20043;-88
2023/06/09 11:22:48;;;;;;;0.40;0.40;;;23.30;99.90;;;;;;5032697;28;20467;-82
2023/06/09 11:25:17;;;;;;;0.30;0.30;;;23.30;99.90;;;;;;5023850;28;20390;-81
2023/06/09 11:27:44;;;;;;;0.22;0.22;;;23.40;99.90;;;;;;5035454;28;20053;-82
2023/06/09 11:30:14;;;;;;;0.38;0.38;;;23.40;99.90;;;;;;5041520;28;20040;-81
2023/06/09 11:32:56;;;;;;;0.57;0.57;;;23.50;99.90;;;;;;5054443;28;20495;-82
2023/06/09 11:35:45;;;;;;;0.47;0.40;;;23.60;99.90;;;;;;5054887;28;20036;-81
2023/06/09 11:38:18;;;;;;;1.00;0.68;;;23.70;99.90;;;;;;5055268;28;20453;-81
2023/06/09 11:40:52;;;;;;;0.43;0.43;;;23.80;99.90;;;;;;5054941;28;20048;-82
2023/06/09 11:43:19;;;;;;;0.63;0.55;;;23.70;99.90;;;;;;5054597;28;20032;-82
2023/06/09 11:45:45;;;;;;;0.47;0.30;;;23.60;99.90;;;;;;5054335;28;20116;-81
2023/06/09 11:48:11;;;;;;;1.25;1.15;;;23.80;99.90;;;;;;5054151;28;20029;-82
2023/06/09 11:50:45;;;;;;;0.75;0.75;;;23.70;99.90;;;;;;5054423;28;20029;-82
2023/06/09 11:53:19;;;;;;;0.13;0.13;;;23.80;99.90;;;;;;5054503;28;20029;-82
2023/06/09 11:55:46;;;;;;;0.10;0.10;;;23.70;99.90;;;;;;5054545;28;20025;-81
2023/06/09 11:58:14;;;;;;;1.52;0.93;;;23.80;99.90;;;;;;5054482;28;20017;-82
2023/06/09 12:00:42;;;;;;;0.77;0.60;;;23.80;99.90;;;;;;5054754;28;20056;-82
2023/06/09 12:03:10;;;;;;;1.40;1.20;;;23.60;99.90;;;;;;5054040;28;20091;-82
2023/06/09 12:05:36;;;;;;;0.40;0.40;;;23.70;99.90;;;;;;5054379;28;20025;-82
2023/06/09 12:08:02;;;;;;;0.90;0.68;;;23.70;99.90;;;;;;5054252;28;20029;-81
2023/06/09 12:10:29;;;;;;;1.65;0.95;;;23.60;99.90;;;;;;5054178;28;20025;-82
2023/06/09 12:12:58;;;;;;;0.50;0.50;;;23.60;99.90;;;;;;5054536;28;20361;-82
2023/06/09 12:15:27;;;;;;;0.65;0.65;;;23.60;99.90;;;;;;5053870;28;20033;-82
2023/06/09 12:17:54;;;;;;;0.25;0.25;;;23.70;99.90;;;;;;5053678;28;20032;-81
2023/06/09 12:20:27;;;;;;;0.63;0.63;;;23.70;99.90;;;;;;5054359;28;20461;-82
2023/06/09 12:23:14;;;;;;;0.52;0.47;;;23.70;99.90;;;;;;5055272;28;20028;-82
2023/06/09 12:25:47;;;;;;;0.82;0.25;;;23.70;99.90;;;;;;5054200;28;20083;-84
2023/06/09 12:28:26;;;;;;;0.50;0.50;;;23.70;99.90;;;;;;5054548;28;20025;-84
2023/06/09 12:31:09;;;;;;;0.30;0.30;;;23.50;99.90;;;;;;5053696;28;20060;-84
2023/06/09 12:33:36;;;;;;;0.47;0.45;;;23.30;99.90;;;;;;5053806;28;20388;-84
2023/06/09 12:36:06;;;;;;;0.30;0.30;;;23.40;99.90;;;;;;5054120;28;20061;-85
2023/06/09 12:38:38;;;;;;;1.65;0.98;;;23.30;99.90;;;;;;5053723;28;20017;-84
2023/06/09 12:41:17;;;;;;;0.85;0.60;;;23.30;99.90;;;;;;5053757;28;20045;-84
2023/06/09 12:43:48;;;;;;;1.40;0.73;;;23.10;99.90;;;;;;5034019;28;20096;-84
2023/06/09 12:46:28;;;;;;;1.27;0.85;;;23.20;99.90;;;;;;5033295;28;20091;-84
2023/06/09 12:48:57;;;;;;;0.57;0.57;;;23.00;99.90;;;;;;5033633;28;20026;-84
2023/06/09 12:51:24;;;;;;;1.00;0.88;;;23.00;99.90;;;;;;5033944;28;20037;-85
2023/06/09 12:53:50;;;;;;;0.40;0.40;;;23.10;99.90;;;;;;5033781;28;20092;-85
2023/06/09 12:56:16;;;;;;;0.45;0.45;;;23.20;99.90;;;;;;5033373;28;20026;-86